sensor_id;sensor_type;location;lat;lon;timestamp;pressure;altitude;pressure_sealevel;temperature;humidity
63399;BME280;49533;-34.520;150.798;2023-07-28T00:00:40;101027.28;;;18.43;45.63
63399;BME280;49533;-34.520;150.798;2023-07-28T00:03:06;101032.66;;;18.52;45.83
63399;BME280;49533;-34.520;150.798;2023-07-28T00:05:33;101037.56;;;18.58;45.64
63399;BME280;49533;-34.520;150.798;2023-07-28T00:07:59;101016.53;;;18.66;45.27
63399;BME280;49533;-34.520;150.798;2023-07-28T00:10:25;101003.38;;;18.72;45.28
63399;BME280;49533;-34.520;150.798;2023-07-28T00:12:52;100999.56;;;18.76;45.00
63399;BME280;49533;-34.520;150.798;2023-07-28T00:15:18;100991.06;;;18.81;45.03
63399;BME280;49533;-34.520;150.798;2023-07-28T00:17:45;100995.25;;;18.91;44.71
63399;BME280;49533;-34.520;150.798;2023-07-28T00:20:11;100980.91;;;18.98;44.67
63399;BME280;49533;-34.520;150.798;2023-07-28T00:22:37;100979.84;;;19.02;44.03
63399;BME280;49533;-34.520;150.798;2023-07-28T00:25:04;100964.97;;;19.07;44.18
63399;BME280;49533;-34.520;150.798;2023-07-28T00:27:30;100963.59;;;19.13;44.42
63399;BME280;49533;-34.520;150.798;2023-07-28T00:29:57;100969.63;;;19.19;44.42
63399;BME280;49533;-34.520;150.798;2023-07-28T00:32:23;100971.66;;;19.22;44.09
63399;BME280;49533;-34.520;150.798;2023-07-28T00:34:50;100958.78;;;19.26;44.26
63399;BME280;49533;-34.520;150.798;2023-07-28T00:37:16;100962.53;;;19.33;44.44
63399;BME280;49533;-34.520;150.798;2023-07-28T00:39:43;100952.75;;;19.36;44.27
63399;BME280;49533;-34.520;150.798;2023-07-28T00:42:10;100952.47;;;19.41;44.23
63399;BME280;49533;-34.520;150.798;2023-07-28T00:44:36;100957.72;;;19.46;44.35
63399;BME280;49533;-34.520;150.798;2023-07-28T00:47:02;100954.31;;;19.53;44.50
63399;BME280;49533;-34.520;150.798;2023-07-28T00:49:29;100949.34;;;19.59;44.51
63399;BME280;49533;-34.520;150.798;2023-07-28T00:51:56;100953.06;;;19.66;44.53
63399;BME280;49533;-34.520;150.798;2023-07-28T00:54:22;100944.13;;;19.69;43.81
63399;BME280;49533;-34.520;150.798;2023-07-28T00:56:49;100953.25;;;19.73;44.13
63399;BME280;49533;-34.520;150.798;2023-07-28T00:59:16;100938.78;;;19.76;43.82
63399;BME280;49533;-34.520;150.798;2023-07-28T01:01:43;100937.25;;;19.79;43.78
63399;BME280;49533;-34.520;150.798;2023-07-28T01:04:09;100952.34;;;19.85;44.07
63399;BME280;49533;-34.520;150.798;2023-07-28T01:06:37;100940.69;;;19.92;44.13
63399;BME280;49533;-34.520;150.798;2023-07-28T01:09:09;100952.22;;;19.97;44.11
63399;BME280;49533;-34.520;150.798;2023-07-28T01:11:37;100952.75;;;20.03;44.30
63399;BME280;49533;-34.520;150.798;2023-07-28T01:14:03;100949.34;;;20.10;44.03
63399;BME280;49533;-34.520;150.798;2023-07-28T01:16:30;100944.69;;;20.14;43.77
63399;BME280;49533;-34.520;150.798;2023-07-28T01:18:56;100949.13;;;20.18;43.64
63399;BME280;49533;-34.520;150.798;2023-07-28T01:21:25;100945.72;;;20.25;42.64
63399;BME280;49533;-34.520;150.798;2023-07-28T01:24:01;100954.84;;;20.29;42.78
63399;BME280;49533;-34.520;150.798;2023-07-28T01:26:35;100957.63;;;20.29;43.25
63399;BME280;49533;-34.520;150.798;2023-07-28T01:29:03;100957.63;;;20.29;43.23
63399;BME280;49533;-34.520;150.798;2023-07-28T01:31:30;100950.50;;;20.28;43.33
63399;BME280;49533;-34.520;150.798;2023-07-28T01:33:56;100952.09;;;20.29;42.99
63399;BME280;49533;-34.520;150.798;2023-07-28T01:36:23;100952.47;;;20.28;42.66
63399;BME280;49533;-34.520;150.798;2023-07-28T01:38:49;100941.06;;;20.29;41.52
63399;BME280;49533;-34.520;150.798;2023-07-28T01:41:16;100947.03;;;20.31;41.89
63399;BME280;49533;-34.520;150.798;2023-07-28T01:43:42;100955.31;;;20.31;42.14
63399;BME280;49533;-34.520;150.798;2023-07-28T01:46:09;100955.75;;;20.33;42.62
63399;BME280;49533;-34.520;150.798;2023-07-28T01:48:35;100940.78;;;20.34;43.17
63399;BME280;49533;-34.520;150.798;2023-07-28T01:51:01;100944.25;;;20.31;44.17
63399;BME280;49533;-34.520;150.798;2023-07-28T01:53:28;100938.31;;;20.29;44.30
63399;BME280;49533;-34.520;150.798;2023-07-28T01:55:54;100943.38;;;20.27;43.97
63399;BME280;49533;-34.520;150.798;2023-07-28T01:58:20;100951.59;;;20.24;43.97
63399;BME280;49533;-34.520;150.798;2023-07-28T02:00:47;100921.69;;;20.26;43.61
63399;BME280;49533;-34.520;150.798;2023-07-28T02:03:13;100924.06;;;20.27;43.08
63399;BME280;49533;-34.520;150.798;2023-07-28T02:05:40;100923.72;;;20.29;42.97
63399;BME280;49533;-34.520;150.798;2023-07-28T02:08:13;100909.13;;;20.28;42.94
63399;BME280;49533;-34.520;150.798;2023-07-28T02:10:39;100919.44;;;20.31;43.23
63399;BME280;49533;-34.520;150.798;2023-07-28T02:13:05;100916.69;;;20.31;43.29
63399;BME280;49533;-34.520;150.798;2023-07-28T02:15:32;100912.75;;;20.32;43.53
63399;BME280;49533;-34.520;150.798;2023-07-28T02:17:59;100914.34;;;20.33;43.34
63399;BME280;49533;-34.520;150.798;2023-07-28T02:20:25;100912.38;;;20.34;43.39
63399;BME280;49533;-34.520;150.798;2023-07-28T02:22:51;100906.06;;;20.33;43.84
63399;BME280;49533;-34.520;150.798;2023-07-28T02:25:18;100899.38;;;20.34;43.64
63399;BME280;49533;-34.520;150.798;2023-07-28T02:27:44;100897.81;;;20.33;43.61
63399;BME280;49533;-34.520;150.798;2023-07-28T02:30:11;100887.19;;;20.35;43.53
63399;BME280;49533;-34.520;150.798;2023-07-28T02:32:37;100885.22;;;20.36;43.28
63399;BME280;49533;-34.520;150.798;2023-07-28T02:35:04;100887.59;;;20.37;42.88
63399;BME280;49533;-34.520;150.798;2023-07-28T02:37:30;100883.69;;;20.38;42.65
63399;BME280;49533;-34.520;150.798;2023-07-28T02:39:57;100890.81;;;20.39;42.05
63399;BME280;49533;-34.520;150.798;2023-07-28T02:42:24;100890.81;;;20.39;42.03
63399;BME280;49533;-34.520;150.798;2023-07-28T02:44:50;100892.44;;;20.40;42.01
63399;BME280;49533;-34.520;150.798;2023-07-28T02:47:17;100893.22;;;20.41;41.84
63399;BME280;49533;-34.520;150.798;2023-07-28T02:49:44;100880.22;;;20.41;41.51
63399;BME280;49533;-34.520;150.798;2023-07-28T02:52:11;100890.06;;;20.42;41.25
63399;BME280;49533;-34.520;150.798;2023-07-28T02:54:37;100891.25;;;20.41;40.78
63399;BME280;49533;-34.520;150.798;2023-07-28T02:57:04;100876.28;;;20.42;40.61
63399;BME280;49533;-34.520;150.798;2023-07-28T02:59:30;100882.63;;;20.43;40.29
63399;BME280;49533;-34.520;150.798;2023-07-28T03:01:56;100879.84;;;20.43;40.24
63399;BME280;49533;-34.520;150.798;2023-07-28T03:04:23;100874.34;;;20.43;40.34
63399;BME280;49533;-34.520;150.798;2023-07-28T03:06:49;100873.50;;;20.42;40.39
63399;BME280;49533;-34.520;150.798;2023-07-28T03:09:15;100873.50;;;20.42;40.06
63399;BME280;49533;-34.520;150.798;2023-07-28T03:11:42;100866.06;;;20.43;40.00
63399;BME280;49533;-34.520;150.798;2023-07-28T03:14:09;100864.53;;;20.46;39.71
63399;BME280;49533;-34.520;150.798;2023-07-28T03:16:35;100864.94;;;20.48;39.55
63399;BME280;49533;-34.520;150.798;2023-07-28T03:19:02;100864.22;;;20.51;39.18
63399;BME280;49533;-34.520;150.798;2023-07-28T03:21:30;100865.81;;;20.52;39.24
63399;BME280;49533;-34.520;150.798;2023-07-28T03:23:57;100852.81;;;20.52;39.16
63399;BME280;49533;-34.520;150.798;2023-07-28T03:26:23;100844.16;;;20.54;39.24
63399;BME280;49533;-34.520;150.798;2023-07-28T03:28:49;100848.53;;;20.55;39.17
63399;BME280;49533;-34.520;150.798;2023-07-28T03:31:16;100850.16;;;20.56;39.28
63399;BME280;49533;-34.520;150.798;2023-07-28T03:36:00;100820.72;;;20.44;39.42
63399;BME280;49533;-34.520;150.798;2023-07-28T03:38:27;100846.94;;;20.54;39.42
63399;BME280;49533;-34.520;150.798;2023-07-28T03:40:55;100814.13;;;20.29;39.52
63399;BME280;49533;-34.520;150.798;2023-07-28T03:43:22;100850.34;;;20.47;39.79
63399;BME280;49533;-34.520;150.798;2023-07-28T03:45:49;100845.50;;;20.40;39.46
63399;BME280;49533;-34.520;150.798;2023-07-28T03:48:16;100856.25;;;20.46;39.48
63399;BME280;49533;-34.520;150.798;2023-07-28T03:50:43;100814.25;;;20.13;39.63
63399;BME280;49533;-34.520;150.798;2023-07-28T03:53:10;100859.00;;;20.46;39.58
63399;BME280;49533;-34.520;150.798;2023-07-28T03:55:38;100845.81;;;20.35;39.71
63399;BME280;49533;-34.520;150.798;2023-07-28T03:58:05;100853.50;;;20.46;39.48
63399;BME280;49533;-34.520;150.798;2023-07-28T04:00:32;100850.28;;;20.44;39.58
63399;BME280;49533;-34.520;150.798;2023-07-28T04:02:59;100857.84;;;20.47;39.74
63399;BME280;49533;-34.520;150.798;2023-07-28T04:05:26;100857.84;;;20.47;39.70
63399;BME280;49533;-34.520;150.798;2023-07-28T04:07:53;100845.97;;;20.23;39.66
63399;BME280;49533;-34.520;150.798;2023-07-28T04:10:21;100845.59;;;20.25;39.71
63399;BME280;49533;-34.520;150.798;2023-07-28T04:12:49;100851.38;;;20.39;39.45
63399;BME280;49533;-34.520;150.798;2023-07-28T04:15:16;100821.00;;;20.16;39.37
63399;BME280;49533;-34.520;150.798;2023-07-28T04:17:43;100847.03;;;20.38;39.85
63399;BME280;49533;-34.520;150.798;2023-07-28T04:20:10;100882.53;;;20.59;39.28
63399;BME280;49533;-34.520;150.798;2023-07-28T04:22:38;100886.53;;;20.61;39.25
63399;BME280;49533;-34.520;150.798;2023-07-28T04:25:05;100831.56;;;20.33;39.54
63399;BME280;49533;-34.520;150.798;2023-07-28T04:27:32;100890.13;;;20.66;39.37
63399;BME280;49533;-34.520;150.798;2023-07-28T04:29:59;100895.31;;;20.67;39.50
63399;BME280;49533;-34.520;150.798;2023-07-28T04:32:27;100872.25;;;20.56;39.30
63399;BME280;49533;-34.520;150.798;2023-07-28T04:34:54;100831.63;;;20.37;39.38
63399;BME280;49533;-34.520;150.798;2023-07-28T04:37:21;100891.06;;;20.73;39.68
63399;BME280;49533;-34.520;150.798;2023-07-28T04:39:48;100902.06;;;20.70;39.71
63399;BME280;49533;-34.520;150.798;2023-07-28T04:42:16;100867.63;;;20.44;39.39
63399;BME280;49533;-34.520;150.798;2023-07-28T04:44:44;100896.59;;;20.73;39.41
63399;BME280;49533;-34.520;150.798;2023-07-28T04:47:12;100911.22;;;20.74;39.83
63399;BME280;49533;-34.520;150.798;2023-07-28T04:52:07;100896.09;;;20.68;40.05
63399;BME280;49533;-34.520;150.798;2023-07-28T04:54:34;100903.44;;;20.60;40.16
63399;BME280;49533;-34.520;150.798;2023-07-28T04:57:01;100917.53;;;20.74;40.16
63399;BME280;49533;-34.520;150.798;2023-07-28T04:59:28;100879.25;;;20.53;40.00
63399;BME280;49533;-34.520;150.798;2023-07-28T05:01:56;100913.59;;;20.75;40.25
63399;BME280;49533;-34.520;150.798;2023-07-28T05:04:23;100899.25;;;20.66;40.11
63399;BME280;49533;-34.520;150.798;2023-07-28T05:06:50;100920.72;;;20.76;40.21
63399;BME280;49533;-34.520;150.798;2023-07-28T05:09:17;100887.91;;;20.52;40.54
63399;BME280;49533;-34.520;150.798;2023-07-28T05:11:44;100899.66;;;20.49;40.56
63399;BME280;49533;-34.520;150.798;2023-07-28T05:14:11;100930.94;;;20.76;40.46
63399;BME280;49533;-34.520;150.798;2023-07-28T05:16:39;100907.56;;;20.70;40.40
63399;BME280;49533;-34.520;150.798;2023-07-28T05:19:07;100872.13;;;20.52;40.30
63399;BME280;49533;-34.520;150.798;2023-07-28T05:21:34;100924.63;;;20.75;40.52
63399;BME280;49533;-34.520;150.798;2023-07-28T05:24:01;100919.91;;;20.76;40.67
63399;BME280;49533;-34.520;150.798;2023-07-28T05:26:28;100934.53;;;20.76;40.43
63399;BME280;49533;-34.520;150.798;2023-07-28T05:28:55;100888.84;;;20.59;40.58
63399;BME280;49533;-34.520;150.798;2023-07-28T05:31:22;100882.81;;;20.34;40.71
63399;BME280;49533;-34.520;150.798;2023-07-28T05:33:49;100937.88;;;20.66;40.67
63399;BME280;49533;-34.520;150.798;2023-07-28T05:36:17;100915.50;;;20.52;40.51
63399;BME280;49533;-34.520;150.798;2023-07-28T05:38:44;100942.38;;;20.74;40.98
63399;BME280;49533;-34.520;150.798;2023-07-28T05:41:11;100935.94;;;20.67;41.04
63399;BME280;49533;-34.520;150.798;2023-07-28T05:43:38;100911.84;;;20.48;40.82
63399;BME280;49533;-34.520;150.798;2023-07-28T05:46:05;100884.84;;;20.37;40.78
63399;BME280;49533;-34.520;150.798;2023-07-28T05:48:32;100886.53;;;20.42;40.95
63399;BME280;49533;-34.520;150.798;2023-07-28T05:50:59;100925.72;;;20.71;40.93
63399;BME280;49533;-34.520;150.798;2023-07-28T05:53:27;100940.34;;;20.71;40.85
63399;BME280;49533;-34.520;150.798;2023-07-28T05:55:54;100918.47;;;20.62;40.98
63399;BME280;49533;-34.520;150.798;2023-07-28T05:58:21;100926.03;;;20.46;40.93
63399;BME280;49533;-34.520;150.798;2023-07-28T06:00:48;100911.56;;;20.53;40.88
63399;BME280;49533;-34.520;150.798;2023-07-28T06:03:16;100908.25;;;20.44;41.01
63399;BME280;49533;-34.520;150.798;2023-07-28T06:05:43;100911.84;;;20.48;40.75
63399;BME280;49533;-34.520;150.798;2023-07-28T06:08:10;100953.28;;;20.67;41.20
63399;BME280;49533;-34.520;150.798;2023-07-28T06:10:37;100912.03;;;20.55;41.09
63399;BME280;49533;-34.520;150.798;2023-07-28T06:13:04;100930.41;;;20.67;41.12
63399;BME280;49533;-34.520;150.798;2023-07-28T06:15:31;100929.97;;;20.65;41.10
63399;BME280;49533;-34.520;150.798;2023-07-28T06:18:01;100909.63;;;20.53;41.52
63399;BME280;49533;-34.520;150.798;2023-07-28T06:20:29;100930.75;;;20.65;41.31
63399;BME280;49533;-34.520;150.798;2023-07-28T06:22:57;100858.97;;;20.23;41.49
63399;BME280;49533;-34.520;150.798;2023-07-28T06:25:24;100919.06;;;20.52;41.73
63399;BME280;49533;-34.520;150.798;2023-07-28T06:27:51;100928.88;;;20.69;41.75
63399;BME280;49533;-34.520;150.798;2023-07-28T06:30:18;100920.81;;;20.60;41.65
63399;BME280;49533;-34.520;150.798;2023-07-28T06:32:46;100885.94;;;20.52;41.69
63399;BME280;49533;-34.520;150.798;2023-07-28T06:35:13;100861.53;;;20.35;41.92
63399;BME280;49533;-34.520;150.798;2023-07-28T06:37:41;100934.53;;;20.76;41.67
63399;BME280;49533;-34.520;150.798;2023-07-28T06:40:11;100914.19;;;20.65;41.75
63399;BME280;49533;-34.520;150.798;2023-07-28T06:42:38;100889.59;;;20.56;41.02
63399;BME280;49533;-34.520;150.798;2023-07-28T06:45:05;100870.03;;;20.46;41.64
63399;BME280;49533;-34.520;150.798;2023-07-28T06:47:33;100903.59;;;20.67;41.18
63399;BME280;49533;-34.520;150.798;2023-07-28T06:50:00;100899.25;;;20.66;41.14
63399;BME280;49533;-34.520;150.798;2023-07-28T06:52:28;100886.31;;;20.51;41.55
63399;BME280;49533;-34.520;150.798;2023-07-28T06:54:55;100905.47;;;20.63;40.90
63399;BME280;49533;-34.520;150.798;2023-07-28T06:57:22;100927.84;;;20.77;41.14
63399;BME280;49533;-34.520;150.798;2023-07-28T06:59:50;100926.97;;;20.73;41.65
63399;BME280;49533;-34.520;150.798;2023-07-28T07:02:18;100914.94;;;20.62;41.25
63399;BME280;49533;-34.520;150.798;2023-07-28T07:04:45;100876.66;;;20.41;40.99
63399;BME280;49533;-34.520;150.798;2023-07-28T07:07:12;100875.44;;;20.38;41.29
63399;BME280;49533;-34.520;150.798;2023-07-28T07:09:39;100908.66;;;20.65;41.28
63399;BME280;49533;-34.520;150.798;2023-07-28T07:12:08;100947.59;;;20.79;41.51
63399;BME280;49533;-34.520;150.798;2023-07-28T07:14:36;100883.31;;;20.40;41.29
63399;BME280;49533;-34.520;150.798;2023-07-28T07:17:03;100946.88;;;20.82;41.31
63399;BME280;49533;-34.520;150.798;2023-07-28T07:19:30;100880.66;;;20.44;41.45
63399;BME280;49533;-34.520;150.798;2023-07-28T07:21:57;100897.50;;;20.58;41.10
63399;BME280;49533;-34.520;150.798;2023-07-28T07:24:25;100899.84;;;20.56;41.06
63399;BME280;49533;-34.520;150.798;2023-07-28T07:26:52;100952.53;;;20.90;41.36
63399;BME280;49533;-34.520;150.798;2023-07-28T07:29:19;100953.97;;;20.83;41.51
63399;BME280;49533;-34.520;150.798;2023-07-28T07:31:46;100963.56;;;20.90;41.39
63399;BME280;49533;-34.520;150.798;2023-07-28T07:34:13;100927.66;;;20.67;40.97
63399;BME280;49533;-34.520;150.798;2023-07-28T07:36:40;100982.16;;;20.93;41.29
63399;BME280;49533;-34.520;150.798;2023-07-28T07:39:07;100962.84;;;20.93;41.40
63399;BME280;49533;-34.520;150.798;2023-07-28T07:41:35;100872.53;;;20.31;41.15
63399;BME280;49533;-34.520;150.798;2023-07-28T07:44:02;100937.28;;;20.76;41.08
63399;BME280;49533;-34.520;150.798;2023-07-28T07:46:29;100939.47;;;20.67;41.41
63399;BME280;49533;-34.520;150.798;2023-07-28T07:48:57;100946.72;;;20.75;41.11
63399;BME280;49533;-34.520;150.798;2023-07-28T07:51:24;100974.19;;;20.88;41.29
63399;BME280;49533;-34.520;150.798;2023-07-28T07:53:51;100896.28;;;20.36;41.03
63399;BME280;49533;-34.520;150.798;2023-07-28T07:56:19;100989.72;;;20.96;41.45
63399;BME280;49533;-34.520;150.798;2023-07-28T07:58:46;100990.53;;;20.96;41.45
63399;BME280;49533;-34.520;150.798;2023-07-28T08:01:13;100996.06;;;20.96;41.32
63399;BME280;49533;-34.520;150.798;2023-07-28T08:03:40;100958.56;;;20.76;41.41
63399;BME280;49533;-34.520;150.798;2023-07-28T08:06:07;100976.34;;;20.78;41.21
63399;BME280;49533;-34.520;150.798;2023-07-28T08:08:37;100982.66;;;20.98;41.50
63399;BME280;49533;-34.520;150.798;2023-07-28T08:11:05;100953.03;;;20.76;41.47
63399;BME280;49533;-34.520;150.798;2023-07-28T08:13:33;100940.22;;;20.64;41.18
63399;BME280;49533;-34.520;150.798;2023-07-28T08:16:01;100964.09;;;20.76;41.53
63399;BME280;49533;-34.520;150.798;2023-07-28T08:18:28;100980.94;;;20.90;41.22
63399;BME280;49533;-34.520;150.798;2023-07-28T08:20:55;100978.13;;;20.87;41.50
63399;BME280;49533;-34.520;150.798;2023-07-28T08:23:22;100959.75;;;20.75;41.23
63399;BME280;49533;-34.520;150.798;2023-07-28T08:25:49;100956.09;;;20.71;41.42
63399;BME280;49533;-34.520;150.798;2023-07-28T08:28:17;100959.25;;;20.69;41.36
63399;BME280;49533;-34.520;150.798;2023-07-28T08:30:44;100959.25;;;20.69;41.48
63399;BME280;49533;-34.520;150.798;2023-07-28T08:33:11;101009.94;;;21.00;41.27
63399;BME280;49533;-34.520;150.798;2023-07-28T08:35:41;100975.22;;;20.79;41.03
63399;BME280;49533;-34.520;150.798;2023-07-28T08:38:08;100973.09;;;20.73;41.59
63399;BME280;49533;-34.520;150.798;2023-07-28T08:40:36;100982.31;;;20.80;41.18
63399;BME280;49533;-34.520;150.798;2023-07-28T08:43:03;100975.81;;;20.69;41.09
63399;BME280;49533;-34.520;150.798;2023-07-28T08:45:31;101012.50;;;20.89;41.24
63399;BME280;49533;-34.520;150.798;2023-07-28T08:47:58;101010.72;;;20.81;41.54
63399;BME280;49533;-34.520;150.798;2023-07-28T08:50:29;101038.63;;;20.95;41.12
63399;BME280;49533;-34.520;150.798;2023-07-28T08:52:59;101034.66;;;20.93;40.97
63399;BME280;49533;-34.520;150.798;2023-07-28T08:55:26;101007.91;;;20.77;40.83
63399;BME280;49533;-34.520;150.798;2023-07-28T08:57:53;101035.28;;;20.86;40.73
63399;BME280;49533;-34.520;150.798;2023-07-28T09:00:21;101037.19;;;20.82;40.74
63399;BME280;49533;-34.520;150.798;2023-07-28T09:02:53;101044.09;;;20.92;40.54
63399;BME280;49533;-34.520;150.798;2023-07-28T09:05:21;101011.75;;;20.73;40.65
63399;BME280;49533;-34.520;150.798;2023-07-28T09:07:50;101017.66;;;20.71;40.45
63399;BME280;49533;-34.520;150.798;2023-07-28T09:10:18;101034.78;;;20.80;40.83
63399;BME280;49533;-34.520;150.798;2023-07-28T09:12:48;101043.53;;;20.82;40.66
63399;BME280;49533;-34.520;150.798;2023-07-28T09:15:15;101035.88;;;20.76;40.65
63399;BME280;49533;-34.520;150.798;2023-07-28T09:17:44;101009.16;;;20.60;40.67
63399;BME280;49533;-34.520;150.798;2023-07-28T09:20:14;100999.47;;;20.51;40.59
63399;BME280;49533;-34.520;150.798;2023-07-28T09:22:43;101041.06;;;20.77;40.93
63399;BME280;49533;-34.520;150.798;2023-07-28T09:25:13;101005.53;;;20.56;41.00
63399;BME280;49533;-34.520;150.798;2023-07-28T09:27:41;101009.44;;;20.55;40.66
63399;BME280;49533;-34.520;150.798;2023-07-28T09:30:08;100995.84;;;20.47;40.86
63399;BME280;49533;-34.520;150.798;2023-07-28T09:32:35;100954.66;;;20.18;40.70
63399;BME280;49533;-34.520;150.798;2023-07-28T09:35:10;101055.16;;;20.72;40.89
63399;BME280;49533;-34.520;150.798;2023-07-28T09:37:40;101041.13;;;20.61;40.65
63399;BME280;49533;-34.520;150.798;2023-07-28T09:40:11;101059.44;;;20.70;40.74
63399;BME280;49533;-34.520;150.798;2023-07-28T09:42:40;101038.91;;;20.51;40.78
63399;BME280;49533;-34.520;150.798;2023-07-28T09:45:08;101068.91;;;20.69;40.95
63399;BME280;49533;-34.520;150.798;2023-07-28T09:47:37;100945.03;;;19.93;40.80
63399;BME280;49533;-34.520;150.798;2023-07-28T09:50:08;101069.25;;;20.67;40.75
63399;BME280;49533;-34.520;150.798;2023-07-28T09:52:41;101024.28;;;20.31;41.02
63399;BME280;49533;-34.520;150.798;2023-07-28T09:55:10;101064.75;;;20.59;41.25
63399;BME280;49533;-34.520;150.798;2023-07-28T09:57:48;101075.94;;;20.66;41.12
63399;BME280;49533;-34.520;150.798;2023-07-28T10:00:16;101034.13;;;20.13;41.54
63399;BME280;49533;-34.520;150.798;2023-07-28T10:02:45;101065.28;;;20.49;41.30
63399;BME280;49533;-34.520;150.798;2023-07-28T10:05:14;101080.63;;;20.66;41.33
63399;BME280;49533;-34.520;150.798;2023-07-28T10:07:44;101035.19;;;20.44;41.32
63399;BME280;49533;-34.520;150.798;2023-07-28T10:10:14;101066.41;;;20.63;41.55
63399;BME280;49533;-34.520;150.798;2023-07-28T10:12:46;101054.19;;;20.65;41.22
63399;BME280;49533;-34.520;150.798;2023-07-28T10:15:17;101056.16;;;20.64;41.40
63399;BME280;49533;-34.520;150.798;2023-07-28T10:17:46;101063.22;;;20.61;41.03
63399;BME280;49533;-34.520;150.798;2023-07-28T10:20:29;101080.91;;;20.60;41.36
63399;BME280;49533;-34.520;150.798;2023-07-28T10:23:13;101047.19;;;20.51;41.06
63399;BME280;49533;-34.520;150.798;2023-07-28T10:25:42;101067.94;;;20.61;41.48
63399;BME280;49533;-34.520;150.798;2023-07-28T10:28:27;101034.31;;;20.39;41.32
63399;BME280;49533;-34.520;150.798;2023-07-28T10:30:59;100984.16;;;19.98;41.64
63399;BME280;49533;-34.520;150.798;2023-07-28T10:33:31;101040.72;;;20.44;41.27
63399;BME280;49533;-34.520;150.798;2023-07-28T10:36:10;101067.50;;;20.59;41.66
63399;BME280;49533;-34.520;150.798;2023-07-28T10:38:38;101047.53;;;20.50;41.49
63399;BME280;49533;-34.520;150.798;2023-07-28T10:41:08;101066.00;;;20.46;41.50
63399;BME280;49533;-34.520;150.798;2023-07-28T10:43:35;101014.72;;;20.25;41.79
63399;BME280;49533;-34.520;150.798;2023-07-28T10:46:03;101027.50;;;20.33;41.50
63399;BME280;49533;-34.520;150.798;2023-07-28T10:48:30;101068.56;;;20.54;41.45
63399;BME280;49533;-34.520;150.798;2023-07-28T10:50:58;101055.38;;;20.48;41.56
63399;BME280;49533;-34.520;150.798;2023-07-28T10:53:25;101070.88;;;20.52;41.55
63399;BME280;49533;-34.520;150.798;2023-07-28T10:58:19;101050.88;;;20.39;41.57
63399;BME280;49533;-34.520;150.798;2023-07-28T11:00:46;100983.81;;;20.00;41.60
63399;BME280;49533;-34.520;150.798;2023-07-28T11:03:14;101041.28;;;20.33;41.87
63399;BME280;49533;-34.520;150.798;2023-07-28T11:05:41;100924.81;;;19.53;41.58
63399;BME280;49533;-34.520;150.798;2023-07-28T11:08:09;101076.66;;;20.47;41.77
63399;BME280;49533;-34.520;150.798;2023-07-28T11:10:37;101042.31;;;20.25;41.88
63399;BME280;49533;-34.520;150.798;2023-07-28T11:13:06;101062.28;;;20.38;41.92
63399;BME280;49533;-34.520;150.798;2023-07-28T11:15:33;101049.28;;;20.38;41.90
63399;BME280;49533;-34.520;150.798;2023-07-28T11:18:02;101039.66;;;20.32;41.77
63399;BME280;49533;-34.520;150.798;2023-07-28T11:20:31;101006.56;;;20.13;42.14
63399;BME280;49533;-34.520;150.798;2023-07-28T11:23:00;101024.06;;;20.20;41.92
63399;BME280;49533;-34.520;150.798;2023-07-28T11:25:30;101055.59;;;20.39;42.03
63399;BME280;49533;-34.520;150.798;2023-07-28T11:28:00;101009.66;;;20.11;42.24
63399;BME280;49533;-34.520;150.798;2023-07-28T11:30:32;101000.06;;;20.05;41.97
63399;BME280;49533;-34.520;150.798;2023-07-28T11:33:04;101004.50;;;20.10;42.00
63399;BME280;49533;-34.520;150.798;2023-07-28T11:35:35;100968.88;;;19.85;41.88
63399;BME280;49533;-34.520;150.798;2023-07-28T11:38:02;101033.91;;;20.22;42.44
63399;BME280;49533;-34.520;150.798;2023-07-28T11:40:30;101000.41;;;20.04;42.13
63399;BME280;49533;-34.520;150.798;2023-07-28T11:43:00;100909.38;;;19.33;42.37
63399;BME280;49533;-34.520;150.798;2023-07-28T11:45:34;100977.50;;;19.84;42.43
63399;BME280;49533;-34.520;150.798;2023-07-28T11:48:10;101002.72;;;20.02;42.16
63399;BME280;49533;-34.520;150.798;2023-07-28T12:12:03;100600.66;;;17.41;42.86
63399;BME280;49533;-34.520;150.798;2023-07-28T12:14:56;100685.13;;;17.72;42.78
63399;BME280;49533;-34.520;150.798;2023-07-28T12:21:21;101047.94;;;20.13;42.96
63399;BME280;49533;-34.520;150.798;2023-07-28T12:24:36;100680.47;;;17.60;42.77
63399;BME280;49533;-34.520;150.798;2023-07-28T12:33:23;100753.47;;;18.17;42.76
63399;BME280;49533;-34.520;150.798;2023-07-28T12:36:07;100821.53;;;18.64;42.94
63399;BME280;49533;-34.520;150.798;2023-07-28T12:38:36;101056.94;;;20.10;42.86
63399;BME280;49533;-34.520;150.798;2023-07-28T12:41:03;100937.09;;;19.24;42.68
63399;BME280;49533;-34.520;150.798;2023-07-28T12:43:30;100966.00;;;19.46;43.01
63399;BME280;49533;-34.520;150.798;2023-07-28T12:45:57;101069.47;;;20.07;42.67
63399;BME280;49533;-34.520;150.798;2023-07-28T12:48:25;100882.09;;;18.96;42.71
63399;BME280;49533;-34.520;150.798;2023-07-28T12:50:52;101047.75;;;20.06;43.13
63399;BME280;49533;-34.520;150.798;2023-07-28T12:53:19;101044.38;;;19.96;42.79
63399;BME280;49533;-34.520;150.798;2023-07-28T12:55:46;101033.09;;;19.86;42.93
63399;BME280;49533;-34.520;150.798;2023-07-28T12:58:13;101055.69;;;19.91;42.83
63399;BME280;49533;-34.520;150.798;2023-07-28T13:00:43;100996.72;;;19.64;42.90
63399;BME280;49533;-34.520;150.798;2023-07-28T13:03:10;101052.03;;;20.03;42.72